OAKB/KBL METAR and TAF weather

Enter ICAO airport designator
Station Type Date Time Source
OAKB METAR 2019/05/25 15:50 UTC NOAA

OAKB 251550Z 35014KT 9999 FEW070 BKN120 BKN150 19/03 Q1019 NOSIG RMK A3010 BLU BLU


Station Type Date Time Source
OAKB Decoded METAR 2019/05/25 15:50 UTC NOAA

Kabul Airport, Afghanistan (OAKB) 34-38N 069-12E
May 25, 2019 - 11:50 AM EDT / 2019.05.25 1550 UTC
Wind: from the N (350 degrees) at 16 MPH (14 KT):0
Visibility: greater than 7 mile(s):0
Sky conditions: mostly cloudy
Temperature: 66 F (19 C)
Dew Point: 37 F (3 C)
Relative Humidity: 34%
Pressure (altimeter): 30.09 in. Hg (1019 hPa)
ob: OAKB 251550Z 35014KT 9999 FEW070 BKN120 BKN150 19/03 Q1019 NOSIG RMK A3010 BLU BLU
cycle: 16

Station Type Date Time Source
OAKB TAF 2019/05/25 12:05 UTC NOAA

TAF OAKB 251105Z 2512/2612 34012KT 9999 SCT100
TEMPO 2512/2518 02015G25KT
BECMG 2518/2520 35007KT CAVOK
BECMG 2604/2606 35012G24KT
TEMPO 2606/2612 35018G30KT

Example: see airport list